Página principal
METAR-TAF:

METAR-TAF

Aeroportos :

Amsterdão, Países Baixos

Aeroporto de Amesterdão Schiphol

latitude: 52-18N, longitude: 004-46E, altura: -4 m

Observação actual do tempo

O boletim foi feito há 36 minutos, às 12:55 UTC
Vento 7 kt de nordeste, variando entre norte e este
Temperatura 5°C
Humidade 60%
Pressão 1026 hPa
Visibilidade: 8000 m

METAR: EHAM 211255Z 05007KT 010V100 8000 NSC 05/M02 Q1026 NOSIG

Hora: 14:31 (13:31 UTC)

Previsão

O boletim foi feito há 27 horas e 2 minutos, às 10:29 UTC
Previsão válida de 20 às 12 UTC a 21 às 18 UTC
Vento 7 kt de este
Visibilidade 10 km ou mais
sem nuvens abaixo de 1500 metros e sem cumulonimbus
Tornando-se
de 20 às 14 UTC a 20 às 16 UTC
Vento 5 kt de nordeste
Probabilidade 30% :
Temporariamente
de 20 às 21 UTC a 21 às 08 UTC
Visibilidade: 4000 m
neblina

TAF: EHAM 201029Z 2012/2118 09007KT CAVOK BECMG 2014/2016 04005KT PROB30 TEMPO 2021/2108 4000 BR NSC

Observações e previsões do tempo de mais de 4000 aeroportos (mensagens METAR e TAF).

As estações disponíveis são os pontos amarelos e vermelhos sobre o mapa.

Mova o rato sobre o mapa para ver o nome da estação.

Depois clique no ponto para visualizar as observações e previsões meteorológicas.

Para alterar o mapa : clique nos botões verdes com uma cruz preta para aumentar o zoom; no botão verde com uma pitada de zoom; ou nas setas verdes para mapas adjacentes.


METAR-TAF: